createdAt,value
2022-11-21T00:00:42.815Z,86.30
2022-11-21T00:03:10.549Z,114.55
2022-11-21T00:05:40.517Z,102.70
2022-11-21T00:08:07.320Z,98.95
2022-11-21T00:10:34.093Z,112.72
2022-11-21T00:13:00.483Z,96.15
2022-11-21T00:15:26.952Z,100.40
2022-11-21T00:17:53.383Z,113.80
2022-11-21T00:20:21.374Z,117.57
2022-11-21T00:22:48.874Z,111.68
2022-11-21T00:25:15.708Z,97.70
2022-11-21T00:27:42.283Z,109.75
2022-11-21T00:30:10.841Z,118.30
2022-11-21T00:32:37.209Z,109.35
2022-11-21T00:35:04.532Z,111.85
2022-11-21T00:37:32.699Z,107.97
2022-11-21T00:39:59.131Z,107.00
2022-11-21T00:42:25.534Z,98.05
2022-11-21T00:44:51.930Z,107.50
2022-11-21T00:47:19.391Z,106.72
2022-11-21T00:49:45.806Z,89.95
2022-11-21T00:52:12.210Z,105.95
2022-11-21T00:54:38.584Z,106.28
2022-11-21T00:57:05.004Z,96.55
2022-11-21T00:59:31.468Z,101.35
2022-11-21T01:01:57.914Z,97.25
2022-11-21T01:04:24.422Z,88.70
2022-11-21T01:06:51.219Z,103.38
2022-11-21T01:09:17.742Z,93.97
2022-11-21T01:11:44.146Z,93.85
2022-11-21T01:14:10.583Z,88.63
2022-11-21T01:16:36.950Z,93.97
2022-11-21T01:19:03.450Z,94.90
2022-11-21T01:21:31.187Z,98.47
2022-11-21T01:24:01.254Z,98.80
2022-11-21T01:26:29.324Z,101.03
2022-11-21T01:28:57.474Z,98.80
2022-11-21T01:31:26.311Z,86.97
2022-11-21T01:33:53.195Z,89.88
2022-11-21T01:36:23.567Z,89.13
2022-11-21T01:38:51.753Z,91.43
2022-11-21T01:41:28.340Z,98.80
2022-11-21T01:43:54.814Z,97.88
2022-11-21T01:46:22.012Z,90.65
2022-11-21T01:48:58.030Z,89.63
2022-11-21T01:51:31.859Z,84.35
2022-11-21T01:54:01.289Z,84.90
2022-11-21T01:56:30.509Z,90.65
2022-11-21T01:58:59.798Z,83.53
2022-11-21T02:01:26.845Z,80.40
2022-11-21T02:03:54.464Z,78.57
2022-11-21T02:06:20.871Z,88.15
2022-11-21T02:08:47.499Z,74.22
2022-11-21T02:11:19.909Z,90.18
2022-11-21T02:13:46.347Z,84.60
2022-11-21T02:16:12.800Z,83.45
2022-11-21T02:18:39.488Z,106.88
2022-11-21T02:21:32.613Z,92.90
2022-11-21T02:24:19.855Z,83.18
2022-11-21T02:26:48.222Z,100.88
2022-11-21T02:29:15.029Z,90.30
2022-11-21T02:31:41.413Z,94.13
2022-11-21T02:34:07.868Z,95.43
2022-11-21T02:36:46.010Z,92.13
2022-11-21T02:39:33.719Z,93.43
2022-11-21T02:42:25.210Z,101.97
2022-11-21T02:44:57.888Z,103.60
2022-11-21T02:47:24.616Z,101.85
2022-11-21T02:50:03.516Z,99.28
2022-11-21T02:52:29.903Z,100.07
2022-11-21T02:54:56.296Z,104.30
2022-11-21T02:57:23.108Z,96.47
2022-11-21T02:59:49.554Z,99.10
2022-11-21T03:02:15.964Z,93.43
2022-11-21T03:04:42.598Z,101.82
2022-11-21T03:07:09.019Z,114.40
2022-11-21T03:09:35.678Z,95.53
2022-11-21T03:12:09.576Z,89.30
2022-11-21T03:14:36.866Z,97.25
2022-11-21T03:17:04.275Z,92.20
2022-11-21T03:19:30.822Z,97.18
2022-11-21T03:21:57.240Z,102.45
2022-11-21T03:24:23.612Z,96.72
2022-11-21T03:26:50.036Z,97.45
2022-11-21T03:29:16.437Z,104.60
2022-11-21T03:31:43.195Z,94.28
2022-11-21T03:34:09.673Z,95.00
2022-11-21T03:36:36.065Z,96.43
2022-11-21T03:39:02.472Z,92.97
2022-11-21T03:41:31.741Z,96.70
2022-11-21T03:44:24.649Z,89.25
2022-11-21T03:46:51.147Z,86.38
2022-11-21T03:49:17.613Z,93.95
2022-11-21T03:51:44.782Z,98.85
2022-11-21T03:54:11.636Z,93.07
2022-11-21T03:56:39.757Z,87.95
2022-11-21T03:59:06.713Z,90.68
2022-11-21T04:01:36.690Z,97.70
2022-11-21T04:04:03.665Z,94.80
2022-11-21T04:06:31.534Z,90.65
2022-11-21T04:08:58.091Z,106.97
2022-11-21T04:11:24.560Z,88.72
2022-11-21T04:13:51.829Z,102.63
2022-11-21T04:16:18.496Z,108.38
2022-11-21T04:18:44.910Z,117.15
2022-11-21T04:21:11.328Z,109.78
2022-11-21T04:23:37.881Z,107.38
2022-11-21T04:26:04.474Z,99.75
2022-11-21T04:28:31.376Z,99.00
2022-11-21T04:31:10.369Z,96.60
2022-11-21T04:33:40.652Z,93.03
2022-11-21T04:36:08.366Z,99.55
2022-11-21T04:38:35.152Z,94.75
2022-11-21T04:41:01.546Z,96.03
2022-11-21T04:43:27.981Z,95.45
2022-11-21T04:45:54.422Z,98.03
2022-11-21T04:48:20.857Z,102.78
2022-11-21T04:50:47.284Z,88.93
2022-11-21T04:53:13.666Z,103.68
2022-11-21T04:55:40.300Z,105.07
2022-11-21T04:58:06.730Z,121.78
2022-11-21T05:00:33.143Z,97.22
2022-11-21T05:03:06.542Z,108.82
2022-11-21T05:05:33.214Z,111.53
2022-11-21T05:07:59.642Z,112.57
2022-11-21T05:10:26.051Z,108.15
2022-11-21T05:13:18.130Z,106.65
2022-11-21T05:15:44.915Z,115.75
2022-11-21T05:18:11.677Z,111.00
2022-11-21T05:20:38.162Z,104.88
2022-11-21T05:23:04.627Z,101.97
2022-11-21T05:25:31.065Z,112.45
2022-11-21T05:27:57.688Z,89.93
2022-11-21T05:30:24.229Z,96.95
2022-11-21T05:32:50.679Z,94.85
2022-11-21T05:35:17.133Z,98.57
2022-11-21T05:37:43.565Z,97.65
2022-11-21T05:40:10.558Z,101.60
2022-11-21T05:42:59.748Z,102.70
2022-11-21T05:45:26.224Z,94.38
2022-11-21T05:47:52.652Z,101.97
2022-11-21T05:50:19.105Z,97.53
2022-11-21T05:52:45.549Z,107.68
2022-11-21T05:55:11.960Z,104.22
2022-11-21T05:57:38.352Z,116.95
2022-11-21T06:00:05.743Z,123.10
2022-11-21T06:02:50.989Z,120.00
2022-11-21T06:05:17.460Z,108.47
2022-11-21T06:07:43.940Z,126.65
2022-11-21T06:10:10.426Z,136.40
2022-11-21T06:12:36.803Z,120.80
2022-11-21T06:15:03.783Z,144.35
2022-11-21T06:17:30.199Z,121.65
2022-11-21T06:19:56.603Z,126.35
2022-11-21T06:22:23.032Z,122.70
2022-11-21T06:24:49.464Z,142.10
2022-11-21T06:27:15.854Z,144.80
2022-11-21T06:29:42.324Z,138.00
2022-11-21T06:32:08.736Z,159.90
2022-11-21T06:34:35.187Z,154.68
2022-11-21T06:37:01.599Z,167.57
2022-11-21T06:39:28.032Z,165.38
2022-11-21T06:41:54.494Z,168.68
2022-11-21T06:44:20.986Z,201.10
2022-11-21T06:46:51.197Z,191.13
2022-11-21T06:49:18.058Z,166.73
2022-11-21T06:51:44.442Z,163.50
2022-11-21T06:54:16.291Z,168.48
2022-11-21T06:56:43.179Z,221.50
2022-11-21T06:59:09.564Z,193.95
2022-11-21T07:01:36.081Z,167.65
2022-11-21T07:04:02.567Z,201.40
2022-11-21T07:06:28.952Z,192.38
2022-11-21T07:09:25.323Z,239.30
2022-11-21T07:11:41.856Z,201.55
2022-11-21T07:14:09.439Z,212.65
2022-11-21T07:16:36.675Z,208.77
2022-11-21T07:19:03.197Z,208.43
2022-11-21T07:21:29.592Z,231.93
2022-11-21T07:23:56.003Z,216.45
2022-11-21T07:26:22.395Z,224.68
2022-11-21T07:28:48.869Z,207.38
2022-11-21T07:31:15.312Z,209.82
2022-11-21T07:33:43.324Z,206.50
2022-11-21T07:36:10.367Z,199.65
2022-11-21T07:38:36.763Z,196.85
2022-11-21T07:41:03.317Z,198.77
2022-11-21T07:43:29.737Z,185.82
2022-11-21T07:45:56.780Z,190.82
2022-11-21T07:48:23.154Z,207.15
2022-11-21T07:50:49.552Z,189.63
2022-11-21T07:53:15.991Z,185.18
2022-11-21T07:55:42.800Z,212.88
2022-11-21T07:58:13.554Z,192.57
2022-11-21T08:00:42.734Z,200.98
2022-11-21T08:03:11.739Z,192.02
2022-11-21T08:05:39.411Z,193.60
2022-11-21T08:08:06.386Z,182.75
2022-11-21T08:10:33.083Z,184.30
2022-11-21T08:12:59.495Z,194.63
2022-11-21T08:15:25.905Z,192.60
2022-11-21T08:17:52.319Z,179.93
2022-11-21T08:20:19.229Z,192.27
2022-11-21T08:22:45.627Z,185.18
2022-11-21T08:25:12.071Z,165.25
2022-11-21T08:27:39.960Z,161.60
2022-11-21T08:30:07.410Z,184.38
2022-11-21T08:32:34.324Z,159.52
2022-11-21T08:35:00.804Z,174.43
2022-11-21T08:37:28.934Z,161.60
2022-11-21T08:39:56.020Z,187.52
2022-11-21T08:42:22.440Z,196.50
2022-11-21T08:44:48.887Z,176.65
2022-11-21T08:47:15.313Z,180.38
2022-11-21T08:49:41.960Z,194.90
2022-11-21T08:52:08.346Z,172.48
2022-11-21T08:54:34.766Z,194.27
2022-11-21T08:57:01.290Z,197.50
2022-11-21T08:59:27.680Z,192.10
2022-11-21T09:01:54.165Z,165.38
2022-11-21T09:04:20.607Z,189.45
2022-11-21T09:06:48.050Z,204.88
2022-11-21T09:09:14.988Z,201.88
2022-11-21T09:11:41.411Z,194.30
2022-11-21T09:14:26.896Z,211.48
2022-11-21T09:17:12.106Z,211.68
2022-11-21T09:19:38.488Z,266.52
2022-11-21T09:22:04.862Z,248.13
2022-11-21T09:24:31.285Z,223.07
2022-11-21T09:26:58.044Z,221.95
2022-11-21T09:29:24.638Z,234.95
2022-11-21T09:31:51.125Z,228.93
2022-11-21T09:34:18.442Z,231.10
2022-11-21T09:36:44.819Z,209.88
2022-11-21T09:39:11.222Z,215.52
2022-11-21T09:41:51.873Z,222.88
2022-11-21T09:44:37.843Z,222.40
2022-11-21T09:47:17.171Z,214.65
2022-11-21T09:49:48.554Z,235.93
2022-11-21T09:52:19.246Z,241.63
2022-11-21T09:54:51.300Z,254.93
2022-11-21T09:57:20.390Z,217.15
2022-11-21T09:59:48.085Z,256.48
2022-11-21T10:02:17.797Z,261.90
2022-11-21T10:04:46.983Z,261.33
2022-11-21T10:07:18.736Z,276.83
2022-11-21T10:09:51.067Z,265.27
2022-11-21T10:12:38.790Z,272.20
2022-11-21T10:15:20.287Z,265.35
2022-11-21T10:18:03.117Z,234.95
2022-11-21T10:21:24.782Z,244.32
2022-11-21T10:24:14.464Z,251.65
2022-11-21T10:26:55.774Z,235.07
2022-11-21T10:29:28.071Z,231.00
2022-11-21T10:31:56.451Z,225.40
2022-11-21T10:34:27.158Z,231.57
2022-11-21T10:36:57.486Z,223.25
2022-11-21T10:39:37.453Z,222.18
2022-11-21T10:42:28.568Z,226.45
2022-11-21T10:45:14.483Z,224.82
2022-11-21T10:47:41.132Z,187.82
2022-11-21T10:50:10.036Z,235.25
2022-11-21T10:52:41.342Z,191.30
2022-11-21T10:55:11.244Z,183.30
2022-11-21T10:57:44.408Z,190.25
2022-11-21T11:00:20.725Z,209.13
2022-11-21T11:03:07.587Z,219.95
2022-11-21T11:05:36.241Z,206.57
2022-11-21T11:08:13.717Z,196.77
2022-11-21T11:11:04.861Z,199.05
2022-11-21T11:16:19.053Z,204.48
2022-11-21T11:19:14.685Z,175.32
2022-11-21T11:21:41.031Z,179.80
2022-11-21T11:24:10.693Z,171.23
2022-11-21T11:26:51.162Z,145.20
2022-11-21T11:29:22.789Z,124.03
2022-11-21T11:31:55.812Z,113.50
2022-11-21T11:34:23.219Z,103.07
2022-11-21T11:37:20.035Z,91.18
2022-11-21T11:39:49.403Z,96.20
2022-11-21T11:42:57.793Z,91.80
2022-11-21T11:45:49.210Z,91.88
2022-11-21T11:48:19.851Z,76.93
2022-11-21T11:50:49.346Z,80.10
2022-11-21T11:53:19.034Z,76.63
2022-11-21T11:55:53.378Z,86.32
2022-11-21T11:58:29.421Z,74.88
2022-11-21T12:01:00.824Z,79.75
2022-11-21T12:03:42.631Z,62.10
2022-11-21T12:06:15.492Z,60.58
2022-11-21T12:08:48.839Z,55.97
2022-11-21T12:12:07.710Z,55.40
2022-11-21T12:15:14.875Z,44.05
2022-11-21T12:18:15.440Z,45.78
2022-11-21T12:20:57.018Z,48.33
2022-11-21T12:23:26.436Z,51.45
2022-11-21T12:26:20.782Z,57.40
2022-11-21T12:28:56.307Z,51.63
2022-11-21T12:31:28.821Z,53.22
2022-11-21T12:34:32.581Z,44.83
2022-11-21T12:37:26.099Z,44.70
2022-11-21T12:40:00.602Z,38.38
2022-11-21T12:42:51.510Z,42.97
2022-11-21T12:45:28.600Z,39.28
2022-11-21T12:48:39.739Z,42.88
2022-11-21T12:51:24.769Z,49.45
2022-11-21T12:54:19.009Z,41.10
2022-11-21T12:57:16.277Z,35.42
2022-11-21T13:00:17.184Z,36.03
2022-11-21T13:03:08.247Z,37.25
2022-11-21T13:05:37.797Z,30.67
2022-11-21T13:08:10.302Z,48.25
2022-11-21T13:10:37.689Z,39.70
2022-11-21T13:13:14.735Z,45.35
2022-11-21T13:15:49.659Z,42.63
2022-11-21T13:18:41.682Z,41.05
2022-11-21T13:21:40.977Z,41.63
2022-11-21T13:24:08.375Z,46.95
2022-11-21T13:26:37.660Z,43.15
2022-11-21T13:29:14.300Z,37.78
2022-11-21T13:31:41.446Z,45.58
2022-11-21T13:34:36.780Z,49.75
2022-11-21T13:37:04.458Z,38.90
2022-11-21T13:39:32.630Z,41.70
2022-11-21T13:42:26.782Z,48.72
2022-11-21T13:44:53.377Z,40.83
2022-11-21T13:47:25.914Z,40.90
2022-11-21T13:50:04.603Z,35.25
2022-11-21T13:52:55.248Z,40.30
2022-11-21T13:55:59.541Z,43.50
2022-11-21T13:58:35.072Z,37.33
2022-11-21T14:01:04.433Z,33.70
2022-11-21T14:03:37.308Z,37.55
2022-11-21T14:06:12.821Z,43.88
2022-11-21T14:08:40.518Z,37.25
2022-11-21T14:11:32.308Z,44.90
2022-11-21T14:13:58.931Z,38.78
2022-11-21T14:16:34.914Z,38.17
2022-11-21T14:19:03.804Z,36.40
2022-11-21T14:21:32.223Z,35.47
2022-11-21T14:24:05.094Z,37.35
2022-11-21T14:26:38.458Z,42.33
2022-11-21T14:29:27.134Z,40.85
2022-11-21T14:31:54.017Z,32.58
2022-11-21T14:34:28.770Z,34.88
2022-11-21T14:36:58.235Z,35.25
2022-11-21T14:39:44.901Z,43.05
2022-11-21T14:42:16.583Z,38.08
2022-11-21T14:44:43.593Z,34.60
2022-11-21T14:47:18.442Z,43.58
2022-11-21T14:49:52.900Z,38.95
2022-11-21T14:52:22.337Z,40.70
2022-11-21T14:57:42.589Z,48.85
2022-11-21T15:00:24.656Z,40.20
2022-11-21T15:02:59.046Z,48.80
2022-11-21T15:06:00.315Z,41.22
2022-11-21T15:11:09.584Z,47.17
2022-11-21T15:13:58.515Z,42.30
2022-11-21T15:16:23.681Z,36.90
2022-11-21T15:18:50.257Z,47.13
2022-11-21T15:21:16.733Z,48.25
2022-11-21T15:23:44.347Z,46.50
2022-11-21T15:26:33.364Z,41.45
2022-11-21T15:29:00.754Z,44.58
2022-11-21T15:31:27.610Z,45.20
2022-11-21T15:37:08.187Z,40.15
2022-11-21T15:39:35.724Z,46.38
2022-11-21T15:42:37.516Z,46.78
2022-11-21T15:45:20.092Z,43.58
2022-11-21T15:47:47.284Z,41.72
2022-11-21T15:50:14.449Z,35.40
2022-11-21T15:52:45.713Z,38.67
2022-11-21T15:55:18.614Z,44.25
2022-11-21T15:57:13.782Z,42.20
2022-11-21T15:57:45.010Z,40.03
2022-11-21T16:00:11.964Z,39.05
2022-11-21T16:02:38.364Z,38.22
2022-11-21T16:05:05.116Z,40.15
2022-11-21T16:07:31.620Z,41.42
2022-11-21T16:09:58.016Z,43.75
2022-11-21T16:12:24.383Z,40.42
2022-11-21T16:14:50.908Z,41.17
2022-11-21T16:17:17.442Z,44.95
2022-11-21T16:19:43.810Z,50.70
2022-11-21T16:22:10.229Z,44.33
2022-11-21T16:24:36.640Z,48.70
2022-11-21T16:27:03.106Z,44.97
2022-11-21T16:29:29.802Z,45.42
2022-11-21T16:31:56.505Z,44.42
2022-11-21T16:34:23.066Z,49.50
2022-11-21T16:36:50.697Z,43.60
2022-11-21T16:39:18.565Z,45.05
2022-11-21T16:41:46.539Z,44.15
2022-11-21T16:44:14.666Z,39.00
2022-11-21T16:46:43.083Z,49.75
2022-11-21T16:49:10.170Z,33.35
2022-11-21T16:51:36.600Z,37.58
2022-11-21T16:54:07.339Z,35.08
2022-11-21T16:56:35.593Z,37.13
2022-11-21T16:59:02.029Z,42.03
2022-11-21T17:01:28.703Z,32.47
2022-11-21T17:03:55.280Z,36.63
2022-11-21T17:06:24.472Z,36.53
2022-11-21T17:08:50.889Z,35.30
2022-11-21T17:11:29.483Z,30.58
2022-11-21T17:14:00.528Z,32.50
2022-11-21T17:16:27.029Z,31.63
2022-11-21T17:18:58.143Z,39.40
2022-11-21T17:21:26.013Z,29.63
2022-11-21T17:23:52.814Z,29.73
2022-11-21T17:26:21.132Z,31.98
2022-11-21T17:28:54.574Z,25.05
2022-11-21T17:31:21.135Z,29.23
2022-11-21T17:33:51.568Z,26.98
2022-11-21T17:36:20.586Z,32.13
2022-11-21T17:38:47.906Z,31.00
2022-11-21T17:41:16.738Z,27.83
2022-11-21T17:43:43.963Z,23.15
2022-11-21T17:46:16.692Z,23.85
2022-11-21T17:48:47.433Z,23.92
2022-11-21T17:51:21.354Z,27.52
2022-11-21T17:53:49.160Z,22.98
2022-11-21T17:56:17.961Z,22.10
2022-11-21T17:58:44.747Z,24.95
2022-11-21T18:01:19.496Z,32.50
2022-11-21T18:03:47.362Z,22.17
2022-11-21T18:06:15.380Z,36.75
2022-11-21T18:08:43.716Z,33.55
2022-11-21T18:11:11.711Z,31.70
2022-11-21T18:13:39.785Z,38.65
2022-11-21T18:16:08.963Z,34.88
2022-11-21T18:18:36.446Z,26.92
2022-11-21T18:21:10.762Z,30.10
2022-11-21T18:23:37.427Z,33.42
2022-11-21T18:26:07.975Z,34.85
2022-11-21T18:28:34.638Z,30.40
2022-11-21T18:31:09.255Z,29.70
2022-11-21T18:33:36.416Z,30.10
2022-11-21T18:36:04.303Z,33.42
2022-11-21T18:38:48.445Z,28.00
2022-11-21T18:41:25.285Z,24.00
2022-11-21T18:43:59.523Z,27.08
2022-11-21T18:46:28.104Z,24.90
2022-11-21T18:49:02.843Z,27.60
2022-11-21T18:51:32.583Z,23.77
2022-11-21T18:54:03.078Z,43.33
2022-11-21T18:56:29.572Z,36.13
2022-11-21T18:58:58.854Z,28.55
2022-11-21T19:01:27.831Z,32.60
2022-11-21T19:03:54.846Z,32.65
2022-11-21T19:06:22.858Z,27.63
2022-11-21T19:08:50.887Z,23.85
2022-11-21T19:11:17.685Z,22.23
2022-11-21T19:13:44.564Z,24.60
2022-11-21T19:16:13.497Z,20.98
2022-11-21T19:18:42.425Z,26.55
2022-11-21T19:21:15.218Z,29.73
2022-11-21T19:26:09.982Z,28.70
2022-11-21T19:28:36.759Z,20.88
2022-11-21T19:31:04.582Z,15.55
2022-11-21T19:33:31.672Z,18.35
2022-11-21T19:36:03.510Z,16.05
2022-11-21T19:38:30.455Z,22.80
2022-11-21T19:41:14.011Z,19.80
2022-11-21T19:43:41.028Z,16.00
2022-11-21T19:46:07.532Z,20.05
2022-11-21T19:48:34.193Z,12.35
2022-11-21T19:51:02.052Z,16.73
2022-11-21T19:53:32.084Z,20.67
2022-11-21T19:55:58.518Z,15.95
2022-11-21T19:58:27.074Z,12.70
2022-11-21T20:00:53.471Z,18.48
2022-11-21T20:03:20.398Z,16.92
2022-11-21T20:05:46.877Z,18.10
2022-11-21T20:08:17.723Z,21.73
2022-11-21T20:10:44.766Z,20.20
2022-11-21T20:13:11.342Z,22.40
2022-11-21T20:15:39.291Z,17.25
2022-11-21T20:18:05.916Z,14.57
2022-11-21T20:20:32.336Z,13.98
2022-11-21T20:22:58.714Z,22.40
2022-11-21T20:25:25.280Z,13.85
2022-11-21T20:27:51.827Z,13.63
2022-11-21T20:30:23.651Z,17.73
2022-11-21T20:32:50.031Z,23.10
2022-11-21T20:35:16.968Z,18.52
2022-11-21T20:37:43.473Z,23.17
2022-11-21T20:40:10.474Z,15.55
2022-11-21T20:42:37.327Z,16.42
2022-11-21T20:46:06.767Z,13.93
2022-11-21T20:47:51.945Z,14.82
2022-11-21T20:50:40.253Z,14.57
2022-11-21T20:55:51.124Z,16.23
2022-11-21T20:58:17.515Z,16.35
2022-11-21T21:00:44.106Z,19.23
2022-11-21T21:03:12.870Z,14.10
2022-11-21T21:05:40.049Z,19.65
2022-11-21T21:08:06.627Z,11.95
2022-11-21T21:10:57.933Z,13.48
2022-11-21T21:13:19.482Z,13.02
2022-11-21T21:15:46.227Z,16.13
2022-11-21T21:18:12.688Z,11.60
2022-11-21T21:21:01.694Z,18.30
2022-11-21T21:23:25.520Z,20.60
2022-11-21T21:25:52.155Z,16.60
2022-11-21T21:28:18.545Z,18.50
2022-11-21T21:30:45.738Z,20.00
2022-11-21T21:33:13.609Z,12.65
2022-11-21T21:35:40.006Z,15.77
2022-11-21T21:38:09.115Z,18.45
2022-11-21T21:40:35.870Z,15.80
2022-11-21T21:43:02.461Z,13.00
2022-11-21T21:45:29.030Z,14.38
2022-11-21T21:47:55.665Z,12.98
2022-11-21T21:50:22.121Z,15.07
2022-11-21T21:52:48.676Z,14.40
2022-11-21T21:55:15.173Z,14.02
2022-11-21T21:57:46.163Z,14.68
2022-11-21T22:00:16.176Z,17.83
2022-11-21T22:02:42.629Z,14.40
2022-11-21T22:05:09.447Z,18.83
2022-11-21T22:07:36.361Z,18.95
2022-11-21T22:10:03.008Z,12.15
2022-11-21T22:12:29.435Z,16.30
2022-11-21T22:14:55.894Z,14.25
2022-11-21T22:17:22.670Z,14.07
2022-11-21T22:19:49.084Z,12.38
2022-11-21T22:22:15.524Z,14.32
2022-11-21T22:24:42.326Z,18.75
2022-11-21T22:27:08.930Z,13.27
2022-11-21T22:29:35.582Z,14.80
2022-11-21T22:32:02.391Z,16.42
2022-11-21T22:34:29.644Z,15.38
2022-11-21T22:36:56.597Z,16.65
2022-11-21T22:39:23.131Z,13.68
2022-11-21T22:41:49.547Z,9.57
2022-11-21T22:44:16.031Z,12.32
2022-11-21T22:46:42.614Z,11.48
2022-11-21T22:49:09.020Z,13.95
2022-11-21T22:51:35.475Z,17.05
2022-11-21T22:54:01.870Z,11.35
2022-11-21T22:56:28.275Z,12.65
2022-11-21T22:58:54.815Z,11.32
2022-11-21T23:01:23.802Z,10.85
2022-11-21T23:03:50.379Z,13.73
2022-11-21T23:06:17.969Z,13.85
2022-11-21T23:08:45.099Z,8.32
2022-11-21T23:11:16.571Z,11.13
2022-11-21T23:13:44.455Z,20.27
2022-11-21T23:16:12.031Z,13.05
2022-11-21T23:18:38.469Z,14.35
2022-11-21T23:21:05.204Z,17.90
2022-11-21T23:23:31.723Z,11.30
2022-11-21T23:25:58.359Z,17.92
2022-11-21T23:28:24.939Z,11.82
2022-11-21T23:30:51.375Z,7.95
2022-11-21T23:33:18.301Z,10.95
2022-11-21T23:35:45.571Z,17.42
2022-11-21T23:38:13.557Z,9.60
2022-11-21T23:40:39.988Z,13.35
2022-11-21T23:43:06.573Z,10.35
2022-11-21T23:45:33.111Z,7.90
2022-11-21T23:47:59.564Z,8.25
2022-11-21T23:50:26.016Z,8.95
2022-11-21T23:52:52.418Z,12.30
2022-11-21T23:55:18.881Z,12.23
2022-11-21T23:57:49.051Z,13.23
